Barcelona, Spain

5:43 PM CEST on 五月 27, 2017 (GMT +0200)
El Prat

天気 に付いての歴史 LEBL - 三月, 2017

Change the Weather History Date:

月曜日, 三月 20, 2017

  Actual Average Record
Temperature  
平均温度 58 °F -  
最高温度 66 °F 61 °F 68 °F (2001)
最低温度 51 °F 48 °F 41 °F (2007)
Degree Days  
暖房度日 6    
Growing Degree Days 8 (Base 50)    
Moisture  
露点温度 49 °F    
Average Humidity 72    
Maximum Humidity 88    
Minimum Humidity 48    
降水確率  
降水確率 0.00 インチ 0.07 インチ - ()
海面圧  
海面圧 29.96 インチ    
 
風速 5 Mph ()    
最大風速 13 Mph    
Max Gust Speed -    
視程 9.1 マイル    
イベント      
Averages and records for this station are not official NWS values.
T = Trace of Precipitation, MM = Missing Value Source: Averaged Metar Reports

Daily Weather History Graph

Daily Weather History Graph

Search for Another Location

Airport or City:

Trip Planner

Search our weather history database for the weather conditions in past years. The results will help you decide how hot, cold, wet, or windy it might be!

Date:

天文

Mar. 20, 2017 入り
実時間 6:55 AM CET 7:03 PM CET
常用薄明 6:27 AM CET 7:31 PM CET
航海薄明 5:55 AM CET 8:03 PM CET
天文薄明 5:22 AM CET 8:36 PM CET
1:37 AM CET (3/20) 11:38 AM CET (3/20)
可視光の長さ 13h 03m
可照時間
12h 08m
十八夜, 52% of the Moon is Illuminated
3月 20
十八夜
3月 20
第 4 四半期
3月 28
新しい
4月 3
上弦
4月 11
満月

Hourly Weather History & Observations

時間 (CET) 温度 露点温度 湿度 気圧 視程 Wind Dir 風速 突風の速度 Precip イベント 現在の気象状況
12:00 AM 56 °F 50 °F 73% 30.02 インチ 10 マイル 1.2 Mph - -  
12:00 AM 55.4 °F 48.2 °F 77% 30.01 インチ 6.2 マイル 西北西 4.6 Mph - N/A   所により曇
12:30 AM 55.4 °F 51.8 °F 88% 30.01 インチ 6.2 マイル 西 4.6 Mph - N/A   所により曇
1:00 AM 54 °F 47 °F 70% 30.00 インチ 11 マイル 北北西 2.3 Mph - -   やや曇
1:00 AM 53.6 °F 46.4 °F 77% 30.01 インチ 6.2 マイル 西 4.6 Mph - N/A   所により曇
1:30 AM 53.6 °F 46.4 °F 77% 29.98 インチ 6.2 マイル 北西 4.6 Mph - N/A   所により曇
2:00 AM 54 °F 46 °F 65% 29.99 インチ 12 マイル ほぼ無風 ほぼ無風 - -  
2:00 AM 53.6 °F 46.4 °F 77% 29.98 インチ 6.2 マイル 北西 4.6 Mph - N/A   所により曇
2:30 AM 53.6 °F 44.6 °F 72% 29.98 インチ 6.2 マイル 北西 6.9 Mph - N/A   所により曇
3:00 AM 52 °F 43 °F 64% 29.97 インチ 12 マイル 北西 1.2 Mph - -  
3:00 AM 51.8 °F 42.8 °F 71% 29.95 インチ 6.2 マイル 北西 8.1 Mph - N/A   所により曇
3:30 AM 51.8 °F 42.8 °F 71% 29.95 インチ 6.2 マイル 西北西 8.1 Mph - N/A   所により曇
4:00 AM 52 °F 43 °F 63% 29.96 インチ 12 マイル 8.1 Mph - -   やや曇
4:30 AM 51.8 °F 41.0 °F 67% 29.95 インチ 6.2 マイル 西北西 8.1 Mph - N/A   所により曇
5:00 AM 52 °F 42 °F 61% 29.95 インチ 14 マイル 4.6 Mph - -  
5:00 AM 51.8 °F 42.8 °F 71% 29.95 インチ 6.2 マイル 北西 11.5 Mph - N/A   所により曇
5:30 AM 51.8 °F 42.8 °F 71% 29.95 インチ 6.2 マイル 北西 11.5 Mph - N/A   所により曇
6:00 AM 53 °F 43 °F 59% 29.96 インチ 18 マイル 9.2 Mph - -  
6:00 AM 51.8 °F 42.8 °F 71% 29.95 インチ 6.2 マイル 北西 12.7 Mph - N/A   所により曇
6:30 AM 51.8 °F 42.8 °F 71% 29.95 インチ 6.2 マイル 北北西 11.5 Mph - N/A   所により曇
7:00 AM 52 °F 43 °F 62% 29.97 インチ 11 マイル 8.1 Mph - -   やや曇
7:00 AM 51.8 °F 42.8 °F 71% 29.95 インチ 6.2 マイル 北北西 9.2 Mph - N/A   所により曇
7:30 AM 51.8 °F 42.8 °F 71% 29.95 インチ 6.2 マイル 北西 9.2 Mph - N/A   所により曇
8:00 AM 53 °F 43 °F 61% 29.97 インチ 11 マイル 6.9 Mph - -  
8:00 AM 51.8 °F 42.8 °F 71% 29.95 インチ 6.2 マイル 北西 10.4 Mph - N/A   所により曇
8:30 AM 53.6 °F 42.8 °F 67% 29.98 インチ 6.2 マイル 北西 9.2 Mph - N/A   所により曇
9:00 AM 58 °F 46 °F 55% 29.99 インチ 11 マイル 西北西 2.3 Mph - -  
9:00 AM 55.4 °F 46.4 °F 72% 29.98 インチ 6.2 マイル 北西 5.8 Mph - N/A   所により曇
9:30 AM 59.0 °F 50.0 °F 72% 29.98 インチ 6.2 マイル 西 4.6 Mph - N/A   所により曇
10:00 AM 62 °F 52 °F 61% 29.99 インチ 12 マイル 西南西 4.6 Mph - -   やや曇
10:00 AM 60.8 °F 51.8 °F 72% 29.98 インチ 6.2 マイル 西 3.5 Mph - N/A   所により曇
10:30 AM 62.6 °F 51.8 °F 68% 29.98 インチ 6.2 マイル 変数 2.3 Mph - N/A   所により曇
11:00 AM 62 °F 52 °F 62% 29.99 インチ 16 マイル 南南西 8.1 Mph - -  
11:00 AM 59.0 °F 51.8 °F 77% 29.98 インチ 6.2 マイル 6.9 Mph - N/A   所により曇
11:30 AM 60.8 °F 51.8 °F 72% 29.98 インチ - 南南西 5.8 Mph - N/A  
12:00 PM 60.8 °F 51.8 °F 72% 29.98 インチ - 南南西 6.9 Mph - N/A  
12:30 PM 60.8 °F 51.8 °F 72% 29.98 インチ - 南南西 8.1 Mph - N/A  
1:00 PM 65 °F 51 °F 51% 29.98 インチ 16 マイル 南西 4.6 Mph - -  
1:00 PM 62.6 °F 50.0 °F 63% 29.98 インチ - 5.8 Mph - N/A  
1:30 PM 64.4 °F 44.6 °F 49% 29.98 インチ - 東南東 6.9 Mph - N/A  
2:00 PM 65 °F 50 °F 48% 29.97 インチ 15 マイル 南南東 6.9 Mph - -  
2:00 PM 62.6 °F 46.4 °F 55% 29.95 インチ - 6.9 Mph - N/A  
2:30 PM 62.6 °F 51.8 °F 68% 29.95 インチ - 6.9 Mph - N/A  
3:00 PM 64 °F 52 °F 56% 29.96 インチ 13 マイル 南南西 6.9 Mph - -  
3:00 PM 60.8 °F 51.8 °F 72% 29.95 インチ - 5.8 Mph - N/A  
3:30 PM 62.6 °F 50.0 °F 63% 29.95 インチ - 5.8 Mph - N/A  
4:00 PM 63 °F 52 °F 58% 29.95 インチ 16 マイル 南南東 5.8 Mph - -  
4:00 PM 60.8 °F 51.8 °F 72% 29.95 インチ - 南東 4.6 Mph - N/A  
4:30 PM 60.8 °F 51.8 °F 72% 29.95 インチ - 南南東 4.6 Mph - N/A  
5:00 PM 62 °F 54 °F 68% 29.94 インチ 12 マイル 南南西 6.9 Mph - -  
5:00 PM 59.0 °F 53.6 °F 82% 29.92 インチ - 5.8 Mph - N/A  
5:30 PM 59.0 °F 53.6 °F 82% 29.92 インチ - 南南西 5.8 Mph - N/A  
6:00 PM 61 °F 53 °F 68% 29.94 インチ 19 マイル 南西 5.8 Mph - -  
6:00 PM 59.0 °F 51.8 °F 77% 29.92 インチ - 5.8 Mph - N/A  
6:30 PM 59.0 °F 51.8 °F 77% 29.92 インチ - 南南西 5.8 Mph - N/A  
7:00 PM 58 °F 52 °F 76% 29.94 インチ 12 マイル 西南西 6.9 Mph - -  
7:00 PM 57.2 °F 51.8 °F 82% 29.92 インチ - 南西 5.8 Mph - N/A  
7:30 PM 57.2 °F 51.8 °F 82% 29.95 インチ - 南南西 4.6 Mph - N/A  
8:00 PM 58 °F 53 °F 79% 29.95 インチ 12 マイル 南西 4.6 Mph - -  
8:00 PM 57.2 °F 53.6 °F 88% 29.95 インチ - 南南西 4.6 Mph - N/A  
8:30 PM 57.2 °F 53.6 °F 88% 29.95 インチ - 南西 3.5 Mph - N/A  
9:00 PM 57 °F 53 °F 84% 29.96 インチ 7 マイル 西南西 2.3 Mph - -  
9:00 PM 57.2 °F 53.6 °F 88% 29.95 インチ - 南南西 2.3 Mph - N/A  
9:30 PM 57.2 °F 53.6 °F 88% 29.95 インチ - ほぼ無風 ほぼ無風 - N/A  
10:00 PM 57 °F 54 °F 85% 29.97 インチ 9 マイル ほぼ無風 ほぼ無風 - -   やや曇
10:00 PM 57.2 °F 53.6 °F 88% 29.95 インチ 6.2 マイル ほぼ無風 ほぼ無風 - N/A   所により曇
10:30 PM 57.2 °F 53.6 °F 88% 29.95 インチ 6.2 マイル ほぼ無風 ほぼ無風 - N/A   所により曇
11:00 PM 56 °F 51 °F 79% 29.98 インチ 5 マイル 4.6 Mph - -   もや
11:00 PM 55.4 °F 51.8 °F 88% 29.98 インチ 5.6 マイル ほぼ無風 ほぼ無風 - N/A   所により曇
11:30 PM 53.6 °F 46.4 °F 77% 29.98 インチ 6.2 マイル ほぼ無風 ほぼ無風 - N/A   所により曇